sensor_id;sensor_type;location;lat;lon;timestamp;P1;durP1;ratioP1;P2;durP2;ratioP2
37355;SDS011;48747;50.250;18.848;2022-09-06T00:01:36;5.75;;;3.45;;
37355;SDS011;48747;50.250;18.848;2022-09-06T00:03:39;8.03;;;3.15;;
37355;SDS011;48747;50.250;18.848;2022-09-06T00:05:43;7.53;;;2.87;;
37355;SDS011;48747;50.250;18.848;2022-09-06T00:07:46;6.28;;;3.02;;
37355;SDS011;48747;50.250;18.848;2022-09-06T00:09:49;6.15;;;3.00;;
37355;SDS011;48747;50.250;18.848;2022-09-06T00:11:52;6.80;;;3.05;;
37355;SDS011;48747;50.250;18.848;2022-09-06T00:13:55;6.37;;;3.22;;
37355;SDS011;48747;50.250;18.848;2022-09-06T00:16:32;4.95;;;2.80;;
37355;SDS011;48747;50.250;18.848;2022-09-06T00:18:12;6.62;;;2.87;;
37355;SDS011;48747;50.250;18.848;2022-09-06T00:20:16;6.20;;;3.00;;
37355;SDS011;48747;50.250;18.848;2022-09-06T00:22:19;4.12;;;2.27;;
37355;SDS011;48747;50.250;18.848;2022-09-06T00:24:22;4.08;;;2.75;;
37355;SDS011;48747;50.250;18.848;2022-09-06T00:26:25;3.95;;;2.50;;
37355;SDS011;48747;50.250;18.848;2022-09-06T00:28:28;5.12;;;2.55;;
37355;SDS011;48747;50.250;18.848;2022-09-06T00:30:31;7.92;;;3.52;;
37355;SDS011;48747;50.250;18.848;2022-09-06T00:32:34;8.40;;;2.58;;
37355;SDS011;48747;50.250;18.848;2022-09-06T00:34:37;4.83;;;2.65;;
37355;SDS011;48747;50.250;18.848;2022-09-06T00:36:40;4.15;;;2.62;;
37355;SDS011;48747;50.250;18.848;2022-09-06T00:38:44;8.60;;;2.92;;
37355;SDS011;48747;50.250;18.848;2022-09-06T00:40:47;4.55;;;2.70;;
37355;SDS011;48747;50.250;18.848;2022-09-06T00:42:50;4.60;;;2.70;;
37355;SDS011;48747;50.250;18.848;2022-09-06T00:44:53;3.15;;;2.30;;
37355;SDS011;48747;50.250;18.848;2022-09-06T00:46:56;5.10;;;2.52;;
37355;SDS011;48747;50.250;18.848;2022-09-06T00:49:03;6.08;;;2.67;;
37355;SDS011;48747;50.250;18.848;2022-09-06T00:51:09;5.10;;;2.60;;
37355;SDS011;48747;50.250;18.848;2022-09-06T00:53:14;4.55;;;2.40;;
37355;SDS011;48747;50.250;18.848;2022-09-06T00:55:18;3.65;;;2.42;;
37355;SDS011;48747;50.250;18.848;2022-09-06T00:57:21;5.67;;;3.20;;
37355;SDS011;48747;50.250;18.848;2022-09-06T00:59:30;4.00;;;2.33;;
37355;SDS011;48747;50.250;18.848;2022-09-06T01:01:35;6.37;;;2.40;;
37355;SDS011;48747;50.250;18.848;2022-09-06T01:03:38;6.90;;;2.80;;
37355;SDS011;48747;50.250;18.848;2022-09-06T01:05:45;4.58;;;2.85;;
37355;SDS011;48747;50.250;18.848;2022-09-06T01:10:19;10.65;;;2.40;;
37355;SDS011;48747;50.250;18.848;2022-09-06T01:19:50;4.80;;;2.67;;
37355;SDS011;48747;50.250;18.848;2022-09-06T01:22:32;8.75;;;2.77;;
37355;SDS011;48747;50.250;18.848;2022-09-06T01:25:02;7.33;;;2.40;;
37355;SDS011;48747;50.250;18.848;2022-09-06T01:29:49;4.83;;;2.22;;
37355;SDS011;48747;50.250;18.848;2022-09-06T01:32:02;4.78;;;2.60;;
37355;SDS011;48747;50.250;18.848;2022-09-06T01:34:22;3.52;;;2.40;;
37355;SDS011;48747;50.250;18.848;2022-09-06T01:36:27;4.60;;;2.27;;
37355;SDS011;48747;50.250;18.848;2022-09-06T01:38:33;6.28;;;2.45;;
37355;SDS011;48747;50.250;18.848;2022-09-06T01:40:36;5.12;;;2.65;;
37355;SDS011;48747;50.250;18.848;2022-09-06T01:42:39;4.72;;;2.35;;
37355;SDS011;48747;50.250;18.848;2022-09-06T01:45:08;5.55;;;2.72;;
37355;SDS011;48747;50.250;18.848;2022-09-06T01:58:54;8.00;;;2.55;;
37355;SDS011;48747;50.250;18.848;2022-09-06T02:05:50;4.78;;;2.37;;
37355;SDS011;48747;50.250;18.848;2022-09-06T02:07:57;6.40;;;2.17;;
37355;SDS011;48747;50.250;18.848;2022-09-06T02:10:06;7.10;;;2.45;;
37355;SDS011;48747;50.250;18.848;2022-09-06T02:12:10;7.65;;;2.80;;
37355;SDS011;48747;50.250;18.848;2022-09-06T02:14:17;7.17;;;2.52;;
37355;SDS011;48747;50.250;18.848;2022-09-06T02:16:25;6.90;;;2.40;;
37355;SDS011;48747;50.250;18.848;2022-09-06T02:18:32;3.30;;;2.33;;
37355;SDS011;48747;50.250;18.848;2022-09-06T02:20:37;4.17;;;2.12;;
37355;SDS011;48747;50.250;18.848;2022-09-06T02:22:43;6.95;;;2.87;;
37355;SDS011;48747;50.250;18.848;2022-09-06T02:24:48;4.80;;;2.87;;
37355;SDS011;48747;50.250;18.848;2022-09-06T02:26:53;8.80;;;2.67;;
37355;SDS011;48747;50.250;18.848;2022-09-06T02:28:56;3.95;;;2.05;;
37355;SDS011;48747;50.250;18.848;2022-09-06T02:31:01;4.28;;;2.17;;
37355;SDS011;48747;50.250;18.848;2022-09-06T02:33:07;6.10;;;2.40;;
37355;SDS011;48747;50.250;18.848;2022-09-06T02:35:12;5.20;;;2.40;;
37355;SDS011;48747;50.250;18.848;2022-09-06T02:37:17;8.33;;;2.60;;
37355;SDS011;48747;50.250;18.848;2022-09-06T02:39:20;9.93;;;2.50;;
37355;SDS011;48747;50.250;18.848;2022-09-06T02:41:25;8.88;;;2.50;;
37355;SDS011;48747;50.250;18.848;2022-09-06T02:43:29;6.70;;;2.40;;
37355;SDS011;48747;50.250;18.848;2022-09-06T02:45:32;5.28;;;2.37;;
37355;SDS011;48747;50.250;18.848;2022-09-06T02:47:36;7.53;;;2.37;;
37355;SDS011;48747;50.250;18.848;2022-09-06T02:49:39;6.08;;;3.05;;
37355;SDS011;48747;50.250;18.848;2022-09-06T02:51:42;7.85;;;2.30;;
37355;SDS011;48747;50.250;18.848;2022-09-06T02:53:45;4.97;;;2.90;;
37355;SDS011;48747;50.250;18.848;2022-09-06T02:55:48;6.60;;;2.52;;
37355;SDS011;48747;50.250;18.848;2022-09-06T02:57:51;7.83;;;2.30;;
37355;SDS011;48747;50.250;18.848;2022-09-06T02:59:54;5.60;;;2.45;;
37355;SDS011;48747;50.250;18.848;2022-09-06T03:01:57;4.42;;;2.17;;
37355;SDS011;48747;50.250;18.848;2022-09-06T03:04:00;5.33;;;2.50;;
37355;SDS011;48747;50.250;18.848;2022-09-06T03:06:04;6.58;;;2.58;;
37355;SDS011;48747;50.250;18.848;2022-09-06T03:08:07;7.10;;;2.50;;
37355;SDS011;48747;50.250;18.848;2022-09-06T03:10:10;4.45;;;2.40;;
37355;SDS011;48747;50.250;18.848;2022-09-06T03:12:13;7.30;;;2.72;;
37355;SDS011;48747;50.250;18.848;2022-09-06T03:14:16;5.65;;;2.92;;
37355;SDS011;48747;50.250;18.848;2022-09-06T03:16:20;5.90;;;2.75;;
37355;SDS011;48747;50.250;18.848;2022-09-06T03:18:23;8.55;;;2.60;;
37355;SDS011;48747;50.250;18.848;2022-09-06T03:20:27;7.37;;;3.17;;
37355;SDS011;48747;50.250;18.848;2022-09-06T03:22:31;5.83;;;2.62;;
37355;SDS011;48747;50.250;18.848;2022-09-06T03:24:34;6.78;;;2.52;;
37355;SDS011;48747;50.250;18.848;2022-09-06T03:26:37;7.42;;;2.50;;
37355;SDS011;48747;50.250;18.848;2022-09-06T03:28:40;6.08;;;2.60;;
37355;SDS011;48747;50.250;18.848;2022-09-06T03:30:43;6.60;;;2.62;;
37355;SDS011;48747;50.250;18.848;2022-09-06T03:32:47;5.67;;;2.70;;
37355;SDS011;48747;50.250;18.848;2022-09-06T03:34:50;3.92;;;2.50;;
37355;SDS011;48747;50.250;18.848;2022-09-06T03:36:53;4.85;;;2.70;;
37355;SDS011;48747;50.250;18.848;2022-09-06T03:38:56;7.70;;;2.65;;
37355;SDS011;48747;50.250;18.848;2022-09-06T03:40:59;5.60;;;2.70;;
37355;SDS011;48747;50.250;18.848;2022-09-06T03:43:02;6.15;;;2.50;;
37355;SDS011;48747;50.250;18.848;2022-09-06T03:45:05;6.62;;;2.65;;
37355;SDS011;48747;50.250;18.848;2022-09-06T03:47:09;7.40;;;2.70;;
37355;SDS011;48747;50.250;18.848;2022-09-06T03:49:12;6.70;;;3.12;;
37355;SDS011;48747;50.250;18.848;2022-09-06T03:51:15;8.60;;;3.45;;
37355;SDS011;48747;50.250;18.848;2022-09-06T03:53:18;5.12;;;2.60;;
37355;SDS011;48747;50.250;18.848;2022-09-06T03:55:22;4.50;;;2.77;;
37355;SDS011;48747;50.250;18.848;2022-09-06T03:57:25;7.33;;;2.87;;
37355;SDS011;48747;50.250;18.848;2022-09-06T03:59:28;6.72;;;2.72;;
37355;SDS011;48747;50.250;18.848;2022-09-06T04:01:31;7.08;;;2.50;;
37355;SDS011;48747;50.250;18.848;2022-09-06T04:03:34;9.75;;;2.98;;
37355;SDS011;48747;50.250;18.848;2022-09-06T04:05:38;5.03;;;2.62;;
37355;SDS011;48747;50.250;18.848;2022-09-06T04:07:41;6.75;;;2.90;;
37355;SDS011;48747;50.250;18.848;2022-09-06T04:09:45;5.83;;;2.83;;
37355;SDS011;48747;50.250;18.848;2022-09-06T04:11:48;5.17;;;2.90;;
37355;SDS011;48747;50.250;18.848;2022-09-06T04:13:51;6.67;;;3.47;;
37355;SDS011;48747;50.250;18.848;2022-09-06T04:15:54;7.42;;;3.10;;
37355;SDS011;48747;50.250;18.848;2022-09-06T04:17:57;7.72;;;2.80;;
37355;SDS011;48747;50.250;18.848;2022-09-06T04:20:00;6.10;;;2.80;;
37355;SDS011;48747;50.250;18.848;2022-09-06T04:22:03;6.08;;;2.67;;
37355;SDS011;48747;50.250;18.848;2022-09-06T04:24:06;5.83;;;2.87;;
37355;SDS011;48747;50.250;18.848;2022-09-06T04:26:09;6.05;;;2.80;;
37355;SDS011;48747;50.250;18.848;2022-09-06T04:28:12;6.20;;;3.05;;
37355;SDS011;48747;50.250;18.848;2022-09-06T04:30:15;6.25;;;3.08;;
37355;SDS011;48747;50.250;18.848;2022-09-06T04:32:18;6.92;;;3.30;;
37355;SDS011;48747;50.250;18.848;2022-09-06T04:34:21;9.33;;;2.92;;
37355;SDS011;48747;50.250;18.848;2022-09-06T04:36:24;7.12;;;3.00;;
37355;SDS011;48747;50.250;18.848;2022-09-06T04:38:29;7.65;;;2.70;;
37355;SDS011;48747;50.250;18.848;2022-09-06T04:40:34;8.18;;;3.10;;
37355;SDS011;48747;50.250;18.848;2022-09-06T04:42:37;6.62;;;3.58;;
37355;SDS011;48747;50.250;18.848;2022-09-06T04:44:40;5.35;;;2.65;;
37355;SDS011;48747;50.250;18.848;2022-09-06T04:46:43;7.62;;;3.22;;
37355;SDS011;48747;50.250;18.848;2022-09-06T04:48:52;7.97;;;3.22;;
37355;SDS011;48747;50.250;18.848;2022-09-06T04:50:51;6.87;;;3.15;;
37355;SDS011;48747;50.250;18.848;2022-09-06T04:52:54;7.80;;;2.80;;
37355;SDS011;48747;50.250;18.848;2022-09-06T04:54:57;11.28;;;3.98;;
37355;SDS011;48747;50.250;18.848;2022-09-06T04:57:00;6.75;;;3.10;;
37355;SDS011;48747;50.250;18.848;2022-09-06T04:59:03;7.75;;;3.10;;
37355;SDS011;48747;50.250;18.848;2022-09-06T05:01:06;10.20;;;3.47;;
37355;SDS011;48747;50.250;18.848;2022-09-06T05:03:09;5.90;;;2.87;;
37355;SDS011;48747;50.250;18.848;2022-09-06T05:05:12;6.65;;;3.05;;
37355;SDS011;48747;50.250;18.848;2022-09-06T05:07:15;10.05;;;3.33;;
37355;SDS011;48747;50.250;18.848;2022-09-06T05:09:18;8.33;;;3.35;;
37355;SDS011;48747;50.250;18.848;2022-09-06T05:11:22;6.37;;;3.08;;
37355;SDS011;48747;50.250;18.848;2022-09-06T05:13:25;9.20;;;3.98;;
37355;SDS011;48747;50.250;18.848;2022-09-06T05:15:28;6.30;;;3.50;;
37355;SDS011;48747;50.250;18.848;2022-09-06T05:17:31;11.03;;;3.37;;
37355;SDS011;48747;50.250;18.848;2022-09-06T05:19:34;10.13;;;3.50;;
37355;SDS011;48747;50.250;18.848;2022-09-06T05:21:37;11.75;;;3.52;;
37355;SDS011;48747;50.250;18.848;2022-09-06T05:23:40;8.45;;;4.28;;
37355;SDS011;48747;50.250;18.848;2022-09-06T05:25:43;7.05;;;3.75;;
37355;SDS011;48747;50.250;18.848;2022-09-06T05:27:46;9.43;;;4.05;;
37355;SDS011;48747;50.250;18.848;2022-09-06T05:29:49;11.03;;;4.00;;
37355;SDS011;48747;50.250;18.848;2022-09-06T05:31:53;8.83;;;3.67;;
37355;SDS011;48747;50.250;18.848;2022-09-06T05:33:56;8.55;;;3.72;;
37355;SDS011;48747;50.250;18.848;2022-09-06T05:35:59;8.58;;;3.80;;
37355;SDS011;48747;50.250;18.848;2022-09-06T05:38:03;7.70;;;3.10;;
37355;SDS011;48747;50.250;18.848;2022-09-06T05:40:06;8.05;;;3.35;;
37355;SDS011;48747;50.250;18.848;2022-09-06T05:42:09;8.98;;;3.40;;
37355;SDS011;48747;50.250;18.848;2022-09-06T05:44:12;9.85;;;3.70;;
37355;SDS011;48747;50.250;18.848;2022-09-06T05:46:16;8.65;;;3.50;;
37355;SDS011;48747;50.250;18.848;2022-09-06T05:48:19;7.53;;;3.33;;
37355;SDS011;48747;50.250;18.848;2022-09-06T05:50:22;7.62;;;3.30;;
37355;SDS011;48747;50.250;18.848;2022-09-06T05:52:25;6.90;;;3.17;;
37355;SDS011;48747;50.250;18.848;2022-09-06T05:54:28;10.03;;;3.95;;
37355;SDS011;48747;50.250;18.848;2022-09-06T05:56:31;11.38;;;4.00;;
37355;SDS011;48747;50.250;18.848;2022-09-06T05:58:34;8.28;;;3.45;;
37355;SDS011;48747;50.250;18.848;2022-09-06T06:00:39;8.55;;;3.70;;
37355;SDS011;48747;50.250;18.848;2022-09-06T06:02:42;10.20;;;3.85;;
37355;SDS011;48747;50.250;18.848;2022-09-06T06:04:46;8.75;;;4.05;;
37355;SDS011;48747;50.250;18.848;2022-09-06T06:06:50;9.95;;;4.05;;
37355;SDS011;48747;50.250;18.848;2022-09-06T06:08:53;9.25;;;4.20;;
37355;SDS011;48747;50.250;18.848;2022-09-06T06:10:59;7.65;;;4.12;;
37355;SDS011;48747;50.250;18.848;2022-09-06T06:13:03;11.30;;;3.85;;
37355;SDS011;48747;50.250;18.848;2022-09-06T06:15:06;11.63;;;4.50;;
37355;SDS011;48747;50.250;18.848;2022-09-06T06:17:09;8.25;;;4.05;;
37355;SDS011;48747;50.250;18.848;2022-09-06T06:19:12;8.80;;;3.92;;
37355;SDS011;48747;50.250;18.848;2022-09-06T06:21:19;13.13;;;4.30;;
37355;SDS011;48747;50.250;18.848;2022-09-06T06:23:23;9.80;;;4.53;;
37355;SDS011;48747;50.250;18.848;2022-09-06T06:25:26;12.23;;;4.30;;
37355;SDS011;48747;50.250;18.848;2022-09-06T06:27:29;9.33;;;4.05;;
37355;SDS011;48747;50.250;18.848;2022-09-06T06:29:33;8.68;;;4.08;;
37355;SDS011;48747;50.250;18.848;2022-09-06T06:31:37;13.38;;;4.58;;
37355;SDS011;48747;50.250;18.848;2022-09-06T06:33:40;7.97;;;3.77;;
37355;SDS011;48747;50.250;18.848;2022-09-06T06:36:03;11.45;;;4.17;;
37355;SDS011;48747;50.250;18.848;2022-09-06T06:38:01;10.78;;;4.15;;
37355;SDS011;48747;50.250;18.848;2022-09-06T06:40:05;8.63;;;4.03;;
37355;SDS011;48747;50.250;18.848;2022-09-06T06:42:08;11.50;;;4.20;;
37355;SDS011;48747;50.250;18.848;2022-09-06T06:44:11;13.18;;;4.40;;
37355;SDS011;48747;50.250;18.848;2022-09-06T06:46:15;17.57;;;4.65;;
37355;SDS011;48747;50.250;18.848;2022-09-06T06:48:19;16.90;;;4.50;;
37355;SDS011;48747;50.250;18.848;2022-09-06T06:50:22;10.80;;;4.08;;
37355;SDS011;48747;50.250;18.848;2022-09-06T06:52:25;13.38;;;3.80;;
37355;SDS011;48747;50.250;18.848;2022-09-06T06:54:28;16.80;;;4.53;;
37355;SDS011;48747;50.250;18.848;2022-09-06T06:56:32;8.65;;;3.77;;
37355;SDS011;48747;50.250;18.848;2022-09-06T06:58:45;10.43;;;3.75;;
37355;SDS011;48747;50.250;18.848;2022-09-06T07:00:49;12.75;;;4.05;;
37355;SDS011;48747;50.250;18.848;2022-09-06T07:02:52;8.45;;;3.67;;
37355;SDS011;48747;50.250;18.848;2022-09-06T07:04:56;10.38;;;4.22;;
37355;SDS011;48747;50.250;18.848;2022-09-06T07:07:00;12.60;;;4.55;;
37355;SDS011;48747;50.250;18.848;2022-09-06T07:09:03;9.13;;;4.53;;
37355;SDS011;48747;50.250;18.848;2022-09-06T07:11:06;11.03;;;4.00;;
37355;SDS011;48747;50.250;18.848;2022-09-06T07:13:10;10.38;;;4.20;;
37355;SDS011;48747;50.250;18.848;2022-09-06T07:15:16;14.28;;;4.30;;
37355;SDS011;48747;50.250;18.848;2022-09-06T07:19:43;13.83;;;5.08;;
37355;SDS011;48747;50.250;18.848;2022-09-06T07:21:40;13.13;;;5.62;;
37355;SDS011;48747;50.250;18.848;2022-09-06T07:23:48;14.30;;;6.17;;
37355;SDS011;48747;50.250;18.848;2022-09-06T07:25:48;16.15;;;6.37;;
37355;SDS011;48747;50.250;18.848;2022-09-06T07:27:57;17.48;;;6.25;;
37355;SDS011;48747;50.250;18.848;2022-09-06T07:30:02;16.00;;;6.50;;
37355;SDS011;48747;50.250;18.848;2022-09-06T07:32:05;10.85;;;5.90;;
37355;SDS011;48747;50.250;18.848;2022-09-06T07:34:08;11.20;;;5.47;;
37355;SDS011;48747;50.250;18.848;2022-09-06T07:36:12;11.63;;;5.00;;
37355;SDS011;48747;50.250;18.848;2022-09-06T07:38:16;13.83;;;5.00;;
37355;SDS011;48747;50.250;18.848;2022-09-06T07:40:23;14.07;;;5.50;;
37355;SDS011;48747;50.250;18.848;2022-09-06T07:42:30;14.53;;;4.97;;
37355;SDS011;48747;50.250;18.848;2022-09-06T07:44:35;14.07;;;4.53;;
37355;SDS011;48747;50.250;18.848;2022-09-06T07:46:38;12.73;;;4.65;;
37355;SDS011;48747;50.250;18.848;2022-09-06T07:48:42;13.40;;;5.03;;
37355;SDS011;48747;50.250;18.848;2022-09-06T07:50:47;15.78;;;4.55;;
37355;SDS011;48747;50.250;18.848;2022-09-06T07:52:50;17.37;;;4.80;;
37355;SDS011;48747;50.250;18.848;2022-09-06T07:54:53;9.95;;;4.47;;
37355;SDS011;48747;50.250;18.848;2022-09-06T07:56:58;10.00;;;4.62;;
37355;SDS011;48747;50.250;18.848;2022-09-06T07:59:01;11.78;;;4.58;;
37355;SDS011;48747;50.250;18.848;2022-09-06T08:03:33;8.53;;;4.15;;
37355;SDS011;48747;50.250;18.848;2022-09-06T08:05:36;13.28;;;4.83;;
37355;SDS011;48747;50.250;18.848;2022-09-06T08:07:39;9.65;;;5.08;;
37355;SDS011;48747;50.250;18.848;2022-09-06T08:09:42;9.78;;;4.83;;
37355;SDS011;48747;50.250;18.848;2022-09-06T08:11:51;12.23;;;4.62;;
37355;SDS011;48747;50.250;18.848;2022-09-06T08:13:51;8.38;;;4.03;;
37355;SDS011;48747;50.250;18.848;2022-09-06T08:16:02;9.23;;;4.35;;
37355;SDS011;48747;50.250;18.848;2022-09-06T08:18:07;10.70;;;4.20;;
37355;SDS011;48747;50.250;18.848;2022-09-06T08:20:10;9.70;;;3.85;;
37355;SDS011;48747;50.250;18.848;2022-09-06T08:22:15;10.93;;;4.28;;
37355;SDS011;48747;50.250;18.848;2022-09-06T08:24:18;7.37;;;4.00;;
37355;SDS011;48747;50.250;18.848;2022-09-06T08:26:21;6.75;;;3.77;;
37355;SDS011;48747;50.250;18.848;2022-09-06T08:28:25;7.37;;;4.05;;
37355;SDS011;48747;50.250;18.848;2022-09-06T08:30:29;9.33;;;3.80;;
37355;SDS011;48747;50.250;18.848;2022-09-06T08:32:36;9.60;;;3.65;;
37355;SDS011;48747;50.250;18.848;2022-09-06T08:34:38;11.53;;;3.83;;
37355;SDS011;48747;50.250;18.848;2022-09-06T08:36:41;6.47;;;3.65;;
37355;SDS011;48747;50.250;18.848;2022-09-06T08:38:45;9.45;;;3.92;;
37355;SDS011;48747;50.250;18.848;2022-09-06T08:40:49;7.83;;;4.00;;
37355;SDS011;48747;50.250;18.848;2022-09-06T08:42:53;9.70;;;4.08;;
37355;SDS011;48747;50.250;18.848;2022-09-06T08:44:58;10.48;;;3.90;;
37355;SDS011;48747;50.250;18.848;2022-09-06T08:47:10;9.48;;;3.30;;
37355;SDS011;48747;50.250;18.848;2022-09-06T08:49:16;8.50;;;3.55;;
37355;SDS011;48747;50.250;18.848;2022-09-06T08:53:25;7.40;;;3.37;;
37355;SDS011;48747;50.250;18.848;2022-09-06T08:55:32;7.83;;;3.60;;
37355;SDS011;48747;50.250;18.848;2022-09-06T08:58:04;7.58;;;3.47;;
37355;SDS011;48747;50.250;18.848;2022-09-06T09:00:21;8.30;;;3.37;;
37355;SDS011;48747;50.250;18.848;2022-09-06T09:02:27;8.40;;;3.20;;
37355;SDS011;48747;50.250;18.848;2022-09-06T09:04:35;6.90;;;3.50;;
37355;SDS011;48747;50.250;18.848;2022-09-06T09:06:43;13.60;;;4.03;;
37355;SDS011;48747;50.250;18.848;2022-09-06T09:11:20;7.72;;;4.50;;
37355;SDS011;48747;50.250;18.848;2022-09-06T09:13:27;10.68;;;3.40;;
37355;SDS011;48747;50.250;18.848;2022-09-06T09:15:32;6.83;;;3.62;;
37355;SDS011;48747;50.250;18.848;2022-09-06T09:17:37;6.78;;;4.00;;
37355;SDS011;48747;50.250;18.848;2022-09-06T09:19:40;6.80;;;4.25;;
37355;SDS011;48747;50.250;18.848;2022-09-06T09:21:45;6.67;;;3.62;;
37355;SDS011;48747;50.250;18.848;2022-09-06T09:23:54;9.08;;;3.20;;
37355;SDS011;48747;50.250;18.848;2022-09-06T09:26:01;5.78;;;3.20;;
37355;SDS011;48747;50.250;18.848;2022-09-06T09:28:05;8.58;;;3.12;;
37355;SDS011;48747;50.250;18.848;2022-09-06T09:30:11;10.30;;;3.72;;
37355;SDS011;48747;50.250;18.848;2022-09-06T09:32:14;4.87;;;2.87;;
37355;SDS011;48747;50.250;18.848;2022-09-06T09:34:28;8.48;;;3.08;;
37355;SDS011;48747;50.250;18.848;2022-09-06T09:36:34;5.53;;;3.00;;
37355;SDS011;48747;50.250;18.848;2022-09-06T09:38:43;5.78;;;3.65;;
37355;SDS011;48747;50.250;18.848;2022-09-06T09:47:29;5.42;;;3.17;;
37355;SDS011;48747;50.250;18.848;2022-09-06T09:49:33;7.45;;;3.33;;
37355;SDS011;48747;50.250;18.848;2022-09-06T09:51:42;6.40;;;2.80;;
37355;SDS011;48747;50.250;18.848;2022-09-06T09:53:50;5.50;;;4.22;;
37355;SDS011;48747;50.250;18.848;2022-09-06T09:57:58;7.08;;;4.00;;
37355;SDS011;48747;50.250;18.848;2022-09-06T10:00:02;8.48;;;3.83;;
37355;SDS011;48747;50.250;18.848;2022-09-06T10:04:43;6.95;;;3.77;;
37355;SDS011;48747;50.250;18.848;2022-09-06T10:06:42;8.28;;;4.30;;
37355;SDS011;48747;50.250;18.848;2022-09-06T10:08:45;6.83;;;4.20;;
37355;SDS011;48747;50.250;18.848;2022-09-06T10:10:50;11.65;;;4.53;;
37355;SDS011;48747;50.250;18.848;2022-09-06T10:15:32;5.85;;;3.02;;
37355;SDS011;48747;50.250;18.848;2022-09-06T10:17:48;11.22;;;4.20;;
37355;SDS011;48747;50.250;18.848;2022-09-06T10:19:52;7.60;;;4.25;;
37355;SDS011;48747;50.250;18.848;2022-09-06T10:21:57;9.35;;;4.10;;
37355;SDS011;48747;50.250;18.848;2022-09-06T10:24:05;11.70;;;4.28;;
37355;SDS011;48747;50.250;18.848;2022-09-06T10:26:19;7.28;;;4.75;;
37355;SDS011;48747;50.250;18.848;2022-09-06T10:28:35;8.33;;;3.60;;
37355;SDS011;48747;50.250;18.848;2022-09-06T10:33:04;7.17;;;3.40;;
37355;SDS011;48747;50.250;18.848;2022-09-06T10:42:13;11.70;;;3.67;;
37355;SDS011;48747;50.250;18.848;2022-09-06T10:46:29;7.05;;;3.58;;
37355;SDS011;48747;50.250;18.848;2022-09-06T10:48:38;6.97;;;3.40;;
37355;SDS011;48747;50.250;18.848;2022-09-06T10:53:47;7.37;;;3.12;;
37355;SDS011;48747;50.250;18.848;2022-09-06T10:55:13;8.95;;;3.72;;
37355;SDS011;48747;50.250;18.848;2022-09-06T10:57:24;9.85;;;3.40;;
37355;SDS011;48747;50.250;18.848;2022-09-06T10:59:31;8.03;;;4.40;;
37355;SDS011;48747;50.250;18.848;2022-09-06T11:01:37;4.92;;;4.30;;
37355;SDS011;48747;50.250;18.848;2022-09-06T11:03:41;9.80;;;8.88;;
37355;SDS011;48747;50.250;18.848;2022-09-06T11:05:46;8.63;;;4.87;;
37355;SDS011;48747;50.250;18.848;2022-09-06T11:08:01;6.75;;;5.12;;
37355;SDS011;48747;50.250;18.848;2022-09-06T11:12:38;10.18;;;6.87;;
37355;SDS011;48747;50.250;18.848;2022-09-06T11:14:48;6.58;;;5.97;;
37355;SDS011;48747;50.250;18.848;2022-09-06T11:16:57;11.20;;;9.30;;
37355;SDS011;48747;50.250;18.848;2022-09-06T11:19:11;10.60;;;9.58;;
37355;SDS011;48747;50.250;18.848;2022-09-06T11:28:42;10.38;;;9.25;;
37355;SDS011;48747;50.250;18.848;2022-09-06T11:31:00;10.45;;;9.45;;
37355;SDS011;48747;50.250;18.848;2022-09-06T11:33:06;9.78;;;8.85;;
37355;SDS011;48747;50.250;18.848;2022-09-06T11:37:34;7.97;;;7.25;;
37355;SDS011;48747;50.250;18.848;2022-09-06T11:39:40;7.05;;;6.42;;
37355;SDS011;48747;50.250;18.848;2022-09-06T11:41:44;6.97;;;6.05;;
37355;SDS011;48747;50.250;18.848;2022-09-06T11:43:50;4.72;;;3.20;;
37355;SDS011;48747;50.250;18.848;2022-09-06T11:45:54;5.15;;;2.90;;
37355;SDS011;48747;50.250;18.848;2022-09-06T11:47:57;6.37;;;3.35;;
37355;SDS011;48747;50.250;18.848;2022-09-06T11:54:53;9.73;;;3.10;;
37355;SDS011;48747;50.250;18.848;2022-09-06T12:08:26;5.92;;;3.05;;
37355;SDS011;48747;50.250;18.848;2022-09-06T12:12:47;5.70;;;2.62;;
37355;SDS011;48747;50.250;18.848;2022-09-06T12:14:52;8.40;;;3.75;;
37355;SDS011;48747;50.250;18.848;2022-09-06T12:19:05;6.97;;;2.70;;
37355;SDS011;48747;50.250;18.848;2022-09-06T12:21:09;3.40;;;2.27;;
37355;SDS011;48747;50.250;18.848;2022-09-06T12:24:00;5.05;;;2.65;;
37355;SDS011;48747;50.250;18.848;2022-09-06T12:27:54;10.18;;;2.60;;
37355;SDS011;48747;50.250;18.848;2022-09-06T12:29:59;4.97;;;2.87;;
37355;SDS011;48747;50.250;18.848;2022-09-06T12:32:12;6.22;;;2.85;;
37355;SDS011;48747;50.250;18.848;2022-09-06T12:34:24;7.10;;;3.37;;
37355;SDS011;48747;50.250;18.848;2022-09-06T12:36:30;6.17;;;2.72;;
37355;SDS011;48747;50.250;18.848;2022-09-06T12:38:33;5.55;;;2.60;;
37355;SDS011;48747;50.250;18.848;2022-09-06T12:40:39;6.28;;;3.10;;
37355;SDS011;48747;50.250;18.848;2022-09-06T12:42:46;6.35;;;3.42;;
37355;SDS011;48747;50.250;18.848;2022-09-06T12:44:51;8.53;;;4.30;;
37355;SDS011;48747;50.250;18.848;2022-09-06T12:46:58;7.30;;;3.70;;
37355;SDS011;48747;50.250;18.848;2022-09-06T12:49:15;6.40;;;3.22;;
37355;SDS011;48747;50.250;18.848;2022-09-06T12:51:20;9.98;;;3.75;;
37355;SDS011;48747;50.250;18.848;2022-09-06T12:53:25;5.67;;;3.75;;
37355;SDS011;48747;50.250;18.848;2022-09-06T12:55:35;6.92;;;2.77;;
37355;SDS011;48747;50.250;18.848;2022-09-06T12:57:34;6.83;;;3.22;;
37355;SDS011;48747;50.250;18.848;2022-09-06T12:59:37;9.88;;;3.58;;
37355;SDS011;48747;50.250;18.848;2022-09-06T13:01:48;6.92;;;2.87;;
37355;SDS011;48747;50.250;18.848;2022-09-06T13:04:13;9.98;;;3.90;;
37355;SDS011;48747;50.250;18.848;2022-09-06T13:06:20;6.62;;;3.37;;
37355;SDS011;48747;50.250;18.848;2022-09-06T13:08:29;15.95;;;5.67;;
37355;SDS011;48747;50.250;18.848;2022-09-06T13:10:31;6.55;;;3.30;;
37355;SDS011;48747;50.250;18.848;2022-09-06T13:12:38;9.43;;;4.10;;
37355;SDS011;48747;50.250;18.848;2022-09-06T13:14:43;10.68;;;3.50;;
37355;SDS011;48747;50.250;18.848;2022-09-06T13:16:47;9.43;;;4.75;;
37355;SDS011;48747;50.250;18.848;2022-09-06T13:18:52;7.20;;;3.60;;
37355;SDS011;48747;50.250;18.848;2022-09-06T13:20:56;7.08;;;3.45;;
37355;SDS011;48747;50.250;18.848;2022-09-06T13:23:08;5.33;;;3.42;;
37355;SDS011;48747;50.250;18.848;2022-09-06T13:25:14;11.15;;;4.87;;
37355;SDS011;48747;50.250;18.848;2022-09-06T13:27:26;7.08;;;5.60;;
37355;SDS011;48747;50.250;18.848;2022-09-06T13:29:35;4.40;;;3.52;;
37355;SDS011;48747;50.250;18.848;2022-09-06T13:31:38;6.40;;;3.27;;
37355;SDS011;48747;50.250;18.848;2022-09-06T13:34:04;6.40;;;3.58;;
37355;SDS011;48747;50.250;18.848;2022-09-06T13:36:05;5.50;;;4.03;;
37355;SDS011;48747;50.250;18.848;2022-09-06T13:40:43;6.35;;;5.75;;
37355;SDS011;48747;50.250;18.848;2022-09-06T13:42:46;8.10;;;7.40;;
37355;SDS011;48747;50.250;18.848;2022-09-06T13:44:50;7.97;;;7.00;;
37355;SDS011;48747;50.250;18.848;2022-09-06T13:46:53;10.53;;;3.77;;
37355;SDS011;48747;50.250;18.848;2022-09-06T13:48:56;8.38;;;5.80;;
37355;SDS011;48747;50.250;18.848;2022-09-06T13:51:02;6.17;;;2.85;;
37355;SDS011;48747;50.250;18.848;2022-09-06T13:53:07;6.65;;;2.60;;
37355;SDS011;48747;50.250;18.848;2022-09-06T13:55:15;9.08;;;2.83;;
37355;SDS011;48747;50.250;18.848;2022-09-06T13:57:26;5.03;;;2.55;;
37355;SDS011;48747;50.250;18.848;2022-09-06T13:59:25;4.35;;;2.65;;
37355;SDS011;48747;50.250;18.848;2022-09-06T14:01:31;9.48;;;3.62;;
37355;SDS011;48747;50.250;18.848;2022-09-06T14:03:34;7.60;;;3.90;;
37355;SDS011;48747;50.250;18.848;2022-09-06T14:05:38;6.75;;;3.67;;